createdAt,value
2023-04-26T00:02:38.068Z,56.45
2023-04-26T00:05:39.918Z,56.39
2023-04-26T00:08:42.260Z,55.95
2023-04-26T00:11:43.736Z,56.12
2023-04-26T00:14:45.345Z,56.41
2023-04-26T00:17:47.379Z,56.34
2023-04-26T00:20:48.934Z,56.28
2023-04-26T00:23:50.651Z,56.57
2023-04-26T00:26:55.688Z,56.22
2023-04-26T00:29:57.293Z,56.24
2023-04-26T00:32:58.819Z,56.50
2023-04-26T00:36:00.414Z,56.40
2023-04-26T00:39:02.620Z,56.43
2023-04-26T00:42:04.335Z,56.41
2023-04-26T00:45:07.351Z,56.51
2023-04-26T00:48:08.909Z,56.50
2023-04-26T00:51:10.563Z,56.47
2023-04-26T00:54:14.074Z,56.55
2023-04-26T00:57:15.847Z,56.47
2023-04-26T01:00:17.512Z,56.62
2023-04-26T01:03:20.319Z,56.55
2023-04-26T01:06:22.583Z,56.57
2023-04-26T01:09:24.091Z,56.56
2023-04-26T01:12:26.683Z,56.63
2023-04-26T01:15:29.907Z,56.69
2023-04-26T01:18:31.458Z,56.77
2023-04-26T01:21:33.347Z,56.74
2023-04-26T01:24:36.116Z,56.90
2023-04-26T01:27:39.108Z,56.83
2023-04-26T01:30:40.661Z,56.85
2023-04-26T01:33:42.265Z,56.74
2023-04-26T01:36:43.714Z,56.94
2023-04-26T01:39:45.167Z,57.02
2023-04-26T01:42:46.700Z,57.01
2023-04-26T01:45:48.296Z,56.88
2023-04-26T01:49:05.154Z,56.94
2023-04-26T01:52:06.660Z,56.88
2023-04-26T01:55:08.825Z,56.95
2023-04-26T01:58:10.505Z,57.02
2023-04-26T02:01:12.349Z,56.97
2023-04-26T02:04:13.879Z,57.12
2023-04-26T02:07:15.421Z,56.52
2023-04-26T02:10:20.468Z,56.76
2023-04-26T02:13:22.013Z,57.43
2023-04-26T02:16:24.379Z,56.92
2023-04-26T02:19:26.141Z,56.96
2023-04-26T02:22:27.756Z,57.16
2023-04-26T02:25:29.350Z,57.21
2023-04-26T02:28:31.473Z,57.15
2023-04-26T02:31:32.985Z,57.10
2023-04-26T02:34:34.655Z,57.11
2023-04-26T02:37:39.685Z,56.96
2023-04-26T02:40:41.245Z,57.17
2023-04-26T02:43:44.110Z,57.29
2023-04-26T02:46:45.771Z,57.64
2023-04-26T02:49:47.258Z,57.53
2023-04-26T02:52:48.779Z,57.32
2023-04-26T02:55:51.209Z,57.39
2023-04-26T02:58:52.990Z,57.72
2023-04-26T03:01:54.805Z,57.55
2023-04-26T03:04:56.991Z,57.46
2023-04-26T03:07:58.533Z,57.45
2023-04-26T03:11:00.281Z,57.38
2023-04-26T03:14:02.435Z,57.51
2023-04-26T03:17:04.949Z,57.47
2023-04-26T03:20:08.044Z,57.37
2023-04-26T03:23:09.616Z,57.25
2023-04-26T03:26:12.176Z,57.28
2023-04-26T03:29:13.758Z,57.24
2023-04-26T03:32:15.455Z,57.20
2023-04-26T03:35:17.184Z,57.28
2023-04-26T03:38:18.727Z,57.20
2023-04-26T03:41:20.926Z,57.26
2023-04-26T03:44:22.544Z,57.22
2023-04-26T03:47:24.242Z,57.10
2023-04-26T03:50:26.419Z,57.06
2023-04-26T03:53:28.040Z,57.16
2023-04-26T03:56:29.574Z,57.24
2023-04-26T03:59:31.592Z,57.01
2023-04-26T04:02:34.425Z,56.77
2023-04-26T04:05:36.205Z,56.72
2023-04-26T04:08:38.692Z,56.69
2023-04-26T04:11:40.526Z,56.65
2023-04-26T04:14:42.110Z,56.66
2023-04-26T04:17:43.786Z,56.67
2023-04-26T04:20:46.076Z,56.67
2023-04-26T04:23:47.821Z,56.97
2023-04-26T04:26:49.914Z,56.52
2023-04-26T04:29:51.477Z,56.77
2023-04-26T04:32:54.172Z,56.40
2023-04-26T04:35:55.844Z,56.75
2023-04-26T04:38:58.138Z,56.86
2023-04-26T04:42:00.399Z,57.04
2023-04-26T04:45:02.385Z,57.09
2023-04-26T04:48:05.165Z,57.03
2023-04-26T04:51:07.994Z,57.21
2023-04-26T04:54:14.425Z,57.18
2023-04-26T04:57:16.810Z,57.28
2023-04-26T05:00:20.272Z,57.21
2023-04-26T05:03:29.277Z,57.13
2023-04-26T05:06:32.145Z,57.20
2023-04-26T05:09:33.890Z,57.15
2023-04-26T05:12:35.595Z,57.18
2023-04-26T05:15:38.408Z,56.83
2023-04-26T05:18:40.109Z,57.18
2023-04-26T05:21:41.978Z,57.21
2023-04-26T05:24:47.689Z,57.27
2023-04-26T05:27:50.011Z,57.50
2023-04-26T05:31:01.905Z,57.27
2023-04-26T05:34:25.709Z,57.87
2023-04-26T05:37:31.644Z,57.93
2023-04-26T05:40:33.140Z,57.90
2023-04-26T05:43:35.397Z,58.05
2023-04-26T05:46:37.000Z,58.11
2023-04-26T05:49:38.486Z,58.34
2023-04-26T05:52:40.789Z,58.32
2023-04-26T05:55:43.338Z,58.44
2023-04-26T05:58:45.289Z,58.44
2023-04-26T06:01:46.991Z,58.46
2023-04-26T06:04:48.528Z,58.41
2023-04-26T06:07:52.213Z,58.55
2023-04-26T06:10:54.499Z,58.49
2023-04-26T06:13:55.968Z,58.70
2023-04-26T06:16:57.993Z,58.49
2023-04-26T06:19:59.755Z,58.27
2023-04-26T06:23:01.295Z,58.67
2023-04-26T06:26:02.851Z,58.58
2023-04-26T06:29:04.517Z,58.48
2023-04-26T06:32:06.278Z,58.61
2023-04-26T06:35:09.052Z,58.66
2023-04-26T06:38:12.668Z,58.78
2023-04-26T06:41:14.373Z,59.01
2023-04-26T06:44:15.846Z,59.19
2023-04-26T06:47:17.531Z,59.19
2023-04-26T06:50:19.135Z,59.22
2023-04-26T06:53:22.945Z,59.06
2023-04-26T06:56:24.856Z,59.29
2023-04-26T06:59:26.509Z,59.30
2023-04-26T07:02:28.061Z,59.31
2023-04-26T07:05:29.596Z,58.93
2023-04-26T07:08:31.329Z,59.46
2023-04-26T07:11:32.849Z,59.12
2023-04-26T07:14:37.177Z,59.08
2023-04-26T07:17:40.160Z,59.18
2023-04-26T07:20:42.088Z,59.25
2023-04-26T07:23:43.602Z,59.22
2023-04-26T07:26:45.399Z,59.11
2023-04-26T07:29:47.119Z,59.21
2023-04-26T07:32:48.775Z,59.36
2023-04-26T07:35:56.572Z,59.52
2023-04-26T07:38:58.148Z,59.86
2023-04-26T07:41:59.648Z,59.86
2023-04-26T07:45:01.126Z,60.17
2023-04-26T07:48:02.662Z,60.63
2023-04-26T07:51:08.971Z,60.42
2023-04-26T07:54:10.936Z,60.77
2023-04-26T07:57:12.458Z,60.73
2023-04-26T08:00:15.833Z,60.71
2023-04-26T08:03:18.158Z,60.80
2023-04-26T08:06:20.045Z,60.80
2023-04-26T08:09:21.881Z,60.54
2023-04-26T08:12:23.392Z,60.78
2023-04-26T08:15:24.909Z,60.72
2023-04-26T08:18:26.411Z,60.61
2023-04-26T08:21:27.895Z,60.67
2023-04-26T08:24:29.540Z,60.65
2023-04-26T08:27:31.848Z,60.83
2023-04-26T08:30:33.584Z,60.59
2023-04-26T08:33:35.281Z,60.49
2023-04-26T08:36:41.511Z,60.60
2023-04-26T08:39:42.997Z,60.40
2023-04-26T08:42:44.503Z,60.64
2023-04-26T08:45:49.309Z,60.32
2023-04-26T08:49:05.683Z,60.31
2023-04-26T08:52:15.919Z,60.23
2023-04-26T08:55:20.005Z,60.26
2023-04-26T08:58:23.122Z,60.24
2023-04-26T09:01:26.020Z,60.39
2023-04-26T09:04:27.751Z,60.03
2023-04-26T09:07:38.233Z,60.18
2023-04-26T09:10:39.706Z,60.20
2023-04-26T09:13:41.174Z,60.10
2023-04-26T09:16:42.754Z,60.07
2023-04-26T09:19:45.567Z,60.05
2023-04-26T09:22:47.177Z,60.01
2023-04-26T09:25:48.661Z,59.96
2023-04-26T09:28:50.657Z,59.98
2023-04-26T09:31:52.751Z,59.98
2023-04-26T09:34:54.410Z,59.92
2023-04-26T09:38:12.114Z,59.87
2023-04-26T09:41:14.481Z,59.85
2023-04-26T09:44:25.773Z,59.78
2023-04-26T09:47:27.252Z,59.78
2023-04-26T09:50:30.320Z,59.76
2023-04-26T09:53:49.924Z,59.72
2023-04-26T09:57:01.600Z,59.78
2023-04-26T10:00:10.240Z,59.83
2023-04-26T10:03:12.899Z,59.72
2023-04-26T10:06:14.886Z,59.67
2023-04-26T10:09:16.408Z,59.81
2023-04-26T10:12:20.048Z,59.63
2023-04-26T10:15:21.855Z,59.49
2023-04-26T10:18:23.375Z,59.54
2023-04-26T10:21:31.851Z,59.61
2023-04-26T10:24:34.934Z,59.53
2023-04-26T10:27:45.401Z,59.50
2023-04-26T10:30:57.777Z,59.56
2023-04-26T10:34:18.631Z,59.40
2023-04-26T10:37:20.211Z,59.41
2023-04-26T10:40:27.849Z,59.48
2023-04-26T10:43:29.811Z,59.32
2023-04-26T10:46:40.623Z,59.42
2023-04-26T10:49:46.957Z,59.36
2023-04-26T10:53:03.549Z,59.14
2023-04-26T10:56:05.311Z,59.34
2023-04-26T11:02:52.934Z,59.02
2023-04-26T11:05:55.393Z,59.28
2023-04-26T11:08:59.880Z,59.17
2023-04-26T11:12:02.545Z,59.24
2023-04-26T11:15:04.361Z,59.40
2023-04-26T11:18:06.306Z,59.65
2023-04-26T11:21:08.916Z,59.92
2023-04-26T11:24:10.435Z,60.02
2023-04-26T11:27:18.128Z,60.21
2023-04-26T11:30:19.950Z,60.22
2023-04-26T11:33:23.046Z,60.47
2023-04-26T11:36:24.940Z,60.67
2023-04-26T11:39:27.102Z,60.80
2023-04-26T11:42:28.578Z,60.84
2023-04-26T11:45:32.736Z,60.90
2023-04-26T11:48:35.785Z,61.11
2023-04-26T11:51:37.482Z,60.98
2023-04-26T11:54:39.064Z,60.96
2023-04-26T11:57:40.915Z,60.96
2023-04-26T12:00:59.663Z,60.99
2023-04-26T12:04:01.658Z,60.95
2023-04-26T12:07:07.074Z,60.85
2023-04-26T12:10:16.646Z,60.84
2023-04-26T12:13:19.371Z,61.00
2023-04-26T12:16:26.702Z,60.92
2023-04-26T12:19:38.303Z,61.00
2023-04-26T12:22:39.880Z,60.93
2023-04-26T12:25:51.615Z,60.97
2023-04-26T12:28:53.116Z,60.74
2023-04-26T12:31:54.709Z,60.83
2023-04-26T12:34:56.175Z,60.63
2023-04-26T12:38:00.494Z,60.77
2023-04-26T12:41:02.150Z,60.76
2023-04-26T12:44:03.718Z,60.82
2023-04-26T12:47:05.672Z,60.82
2023-04-26T12:50:08.076Z,60.74
2023-04-26T12:53:11.076Z,60.72
2023-04-26T12:56:12.565Z,61.06
2023-04-26T12:59:14.108Z,60.78
2023-04-26T13:02:15.749Z,61.06
2023-04-26T13:05:17.318Z,60.80
2023-04-26T13:08:18.860Z,60.91
2023-04-26T13:11:20.595Z,60.76
2023-04-26T13:14:25.135Z,60.83
2023-04-26T13:17:26.892Z,60.76
2023-04-26T13:20:30.413Z,60.59
2023-04-26T13:23:32.582Z,60.68
2023-04-26T13:26:34.233Z,60.58
2023-04-26T13:29:36.266Z,60.75
2023-04-26T13:32:37.780Z,60.56
2023-04-26T13:35:39.292Z,60.77
2023-04-26T13:38:40.789Z,60.65
2023-04-26T13:41:42.254Z,60.71
2023-04-26T13:44:44.366Z,60.74
2023-04-26T13:47:45.932Z,60.48
2023-04-26T13:50:47.470Z,60.72
2023-04-26T13:53:49.043Z,60.72
2023-04-26T13:56:50.539Z,60.62
2023-04-26T13:59:54.858Z,60.43
2023-04-26T14:02:56.773Z,60.52
2023-04-26T14:05:58.404Z,60.83
2023-04-26T14:09:00.295Z,60.36
2023-04-26T14:15:08.875Z,60.25
2023-04-26T14:18:11.183Z,60.29
2023-04-26T14:21:12.770Z,60.28
2023-04-26T14:24:14.294Z,60.28
2023-04-26T14:27:16.204Z,60.38
2023-04-26T14:30:17.686Z,60.38
2023-04-26T14:33:19.217Z,60.51
2023-04-26T14:36:20.796Z,60.69
2023-04-26T14:39:24.467Z,60.78
2023-04-26T14:42:26.257Z,61.15
2023-04-26T14:45:42.853Z,61.48
2023-04-26T14:48:46.575Z,61.90
2023-04-26T14:51:48.086Z,62.13
2023-04-26T14:54:51.678Z,62.21
2023-04-26T14:57:54.432Z,62.41
2023-04-26T15:00:56.012Z,62.40
2023-04-26T15:04:00.218Z,62.43
2023-04-26T15:07:02.701Z,62.45
2023-04-26T15:10:05.963Z,62.41
2023-04-26T15:13:07.620Z,62.29
2023-04-26T15:16:09.125Z,62.35
2023-04-26T15:19:10.655Z,62.99
2023-04-26T15:22:12.137Z,62.41
2023-04-26T15:25:13.803Z,62.42
2023-04-26T15:28:16.593Z,62.58
2023-04-26T15:31:20.759Z,62.47
2023-04-26T15:34:25.150Z,62.68
2023-04-26T15:37:26.583Z,62.89
2023-04-26T15:40:28.168Z,62.96
2023-04-26T15:43:29.665Z,62.95
2023-04-26T15:46:31.401Z,63.22
2023-04-26T15:49:32.986Z,63.00
2023-04-26T15:52:38.578Z,63.28
2023-04-26T15:55:41.528Z,63.38
2023-04-26T15:58:45.206Z,63.39
2023-04-26T16:01:46.905Z,63.44
2023-04-26T16:04:48.523Z,63.39
2023-04-26T16:07:50.751Z,63.41
2023-04-26T16:10:52.238Z,64.15
2023-04-26T16:13:53.718Z,64.47
2023-04-26T16:16:55.445Z,64.64
2023-04-26T16:19:56.906Z,64.54
2023-04-26T16:22:58.423Z,64.96
2023-04-26T16:26:00.071Z,65.25
2023-04-26T16:29:01.754Z,65.74
2023-04-26T16:32:03.437Z,66.11
2023-04-26T16:35:08.884Z,65.92
2023-04-26T16:38:10.574Z,66.20
2023-04-26T16:41:12.131Z,66.26
2023-04-26T16:44:13.632Z,66.26
2023-04-26T16:47:15.105Z,66.14
2023-04-26T16:50:16.561Z,66.63
2023-04-26T16:53:18.296Z,66.48
2023-04-26T16:56:19.921Z,66.28
2023-04-26T16:59:22.147Z,66.57
2023-04-26T17:02:23.694Z,66.59
2023-04-26T17:05:25.785Z,66.75
2023-04-26T17:08:27.378Z,66.44
2023-04-26T17:11:29.471Z,66.74
2023-04-26T17:14:32.619Z,66.74
2023-04-26T17:17:34.516Z,66.69
2023-04-26T17:20:36.293Z,66.69
2023-04-26T17:23:37.815Z,66.86
2023-04-26T17:26:39.396Z,66.71
2023-04-26T17:29:41.408Z,66.87
2023-04-26T17:32:42.919Z,66.65
2023-04-26T17:35:44.532Z,66.80
2023-04-26T17:38:46.104Z,66.81
2023-04-26T17:41:47.578Z,66.90
2023-04-26T17:44:49.052Z,66.76
2023-04-26T17:47:50.724Z,66.72
2023-04-26T17:50:52.843Z,66.75
2023-04-26T17:53:54.513Z,66.81
2023-04-26T17:56:56.411Z,66.23
2023-04-26T17:59:57.890Z,66.16
2023-04-26T18:03:02.821Z,65.58
2023-04-26T18:06:04.646Z,65.56
2023-04-26T18:09:06.147Z,65.25
2023-04-26T18:12:08.430Z,65.46
2023-04-26T18:15:10.333Z,65.33
2023-04-26T18:18:11.950Z,65.14
2023-04-26T18:21:13.809Z,64.87
2023-04-26T18:24:15.420Z,64.75
2023-04-26T18:27:17.588Z,64.85
2023-04-26T18:30:19.332Z,64.63
2023-04-26T18:33:20.974Z,64.65
2023-04-26T18:36:22.635Z,64.44
2023-04-26T18:39:24.114Z,64.59
2023-04-26T18:42:25.622Z,64.30
2023-04-26T18:45:27.108Z,64.46
2023-04-26T18:48:28.680Z,64.02
2023-04-26T18:51:30.181Z,64.22
2023-04-26T18:54:33.058Z,63.93
2023-04-26T18:57:34.559Z,63.93
2023-04-26T19:00:36.901Z,63.86
2023-04-26T19:03:38.534Z,64.43
2023-04-26T19:06:41.370Z,64.03
2023-04-26T19:09:53.692Z,63.74
2023-04-26T19:12:55.592Z,63.78
2023-04-26T19:15:57.052Z,63.50
2023-04-26T19:18:58.690Z,63.63
2023-04-26T19:22:01.033Z,63.62
2023-04-26T19:25:02.703Z,63.43
2023-04-26T19:28:04.434Z,63.47
2023-04-26T19:31:06.208Z,63.35
2023-04-26T19:34:07.753Z,63.34
2023-04-26T19:37:09.438Z,63.46
2023-04-26T19:40:11.935Z,63.41
2023-04-26T19:43:13.738Z,63.21
2023-04-26T19:46:15.568Z,63.27
2023-04-26T19:49:17.292Z,63.33
2023-04-26T19:52:18.769Z,62.91
2023-04-26T19:55:20.497Z,63.33
2023-04-26T19:58:21.973Z,63.23
2023-04-26T20:01:23.653Z,62.95
2023-04-26T20:04:25.573Z,62.54
2023-04-26T20:07:27.534Z,63.07
2023-04-26T20:10:33.700Z,62.98
2023-04-26T20:13:35.346Z,63.08
2023-04-26T20:16:37.046Z,62.89
2023-04-26T20:19:38.614Z,62.86
2023-04-26T20:22:40.655Z,62.91
2023-04-26T20:25:42.208Z,62.87
2023-04-26T20:28:43.692Z,63.16
2023-04-26T20:31:45.476Z,63.01
2023-04-26T20:34:46.965Z,62.86
2023-04-26T20:37:48.499Z,62.71
2023-04-26T20:40:50.029Z,62.89
2023-04-26T20:43:52.874Z,62.72
2023-04-26T20:46:54.385Z,62.93
2023-04-26T20:49:56.014Z,62.72
2023-04-26T20:52:57.654Z,62.76
2023-04-26T20:55:59.184Z,62.65
2023-04-26T20:59:00.722Z,62.65
2023-04-26T21:02:02.926Z,62.73
2023-04-26T21:05:04.970Z,62.83
2023-04-26T21:08:06.436Z,62.77
2023-04-26T21:11:07.910Z,62.73
2023-04-26T21:14:09.492Z,62.70
2023-04-26T21:17:11.228Z,62.75
2023-04-26T21:20:12.948Z,62.96
2023-04-26T21:23:14.442Z,62.49
2023-04-26T21:26:16.174Z,62.68
2023-04-26T21:29:17.656Z,62.65
2023-04-26T21:32:19.197Z,62.76
2023-04-26T21:35:20.718Z,62.75
2023-04-26T21:38:22.219Z,62.81
2023-04-26T21:41:25.653Z,62.58
2023-04-26T21:44:27.104Z,62.82
2023-04-26T21:47:28.707Z,62.32
2023-04-26T21:50:30.456Z,62.61
2023-04-26T21:53:31.976Z,62.45
2023-04-26T21:56:33.842Z,62.44
2023-04-26T21:59:36.290Z,62.44
2023-04-26T22:02:38.961Z,62.36
2023-04-26T22:05:40.882Z,62.61
2023-04-26T22:08:42.458Z,62.69
2023-04-26T22:11:43.985Z,62.53
2023-04-26T22:14:45.625Z,62.48
2023-04-26T22:17:47.177Z,62.40
2023-04-26T22:20:48.767Z,62.11
2023-04-26T22:23:50.401Z,62.32
2023-04-26T22:26:51.911Z,62.08
2023-04-26T22:29:53.412Z,62.31
2023-04-26T22:32:57.326Z,62.23
2023-04-26T22:35:59.513Z,62.14
2023-04-26T22:39:01.450Z,62.26
2023-04-26T22:42:02.988Z,62.20
2023-04-26T22:45:04.968Z,62.06
2023-04-26T22:48:06.616Z,62.01
2023-04-26T22:51:08.123Z,61.65
2023-04-26T22:54:09.586Z,61.88
2023-04-26T22:57:11.192Z,61.94
2023-04-26T23:00:14.456Z,62.02
2023-04-26T23:03:16.080Z,62.06
2023-04-26T23:06:17.593Z,62.05
2023-04-26T23:09:19.103Z,62.27
2023-04-26T23:12:20.593Z,62.09
2023-04-26T23:15:22.158Z,62.02
2023-04-26T23:18:23.619Z,62.00
2023-04-26T23:21:25.070Z,62.02
2023-04-26T23:24:26.772Z,62.41
2023-04-26T23:27:28.265Z,62.01
2023-04-26T23:30:29.748Z,61.94
2023-04-26T23:33:31.468Z,62.21
2023-04-26T23:36:33.380Z,61.93
2023-04-26T23:39:35.871Z,62.05
2023-04-26T23:42:37.471Z,62.19
2023-04-26T23:45:38.968Z,61.95
2023-04-26T23:48:40.900Z,62.30
2023-04-26T23:51:42.439Z,61.92
2023-04-26T23:54:43.924Z,62.15
2023-04-26T23:57:45.394Z,62.04
